createdAt,value
2023-02-04T00:03:33.659Z,0.68
2023-02-04T00:08:37.650Z,0.68
2023-02-04T00:13:40.508Z,0.57
2023-02-04T00:18:43.104Z,0.74
2023-02-04T00:23:45.642Z,0.73
2023-02-04T00:28:48.460Z,0.85
2023-02-04T00:33:52.535Z,0.82
2023-02-04T00:38:55.356Z,0.69
2023-02-04T00:43:57.922Z,0.94
2023-02-04T00:49:00.553Z,0.90
2023-02-04T00:54:03.064Z,0.71
2023-02-04T00:59:05.637Z,0.57
2023-02-04T01:04:08.326Z,0.47
2023-02-04T01:09:11.823Z,0.52
2023-02-04T01:14:14.386Z,0.51
2023-02-04T01:19:17.453Z,0.34
2023-02-04T01:24:19.979Z,0.21
2023-02-04T01:29:41.305Z,0.51
2023-02-04T01:34:43.866Z,0.58
2023-02-04T01:39:46.701Z,0.55
2023-02-04T01:44:49.792Z,0.49
2023-02-04T01:49:54.762Z,0.51
2023-02-04T01:54:57.289Z,0.47
2023-02-04T01:59:59.839Z,0.50
2023-02-04T02:05:03.249Z,0.38
2023-02-04T02:10:08.055Z,0.45
2023-02-04T02:15:13.905Z,0.41
2023-02-04T02:20:18.011Z,0.42
2023-02-04T02:25:20.648Z,0.23
2023-02-04T02:30:23.699Z,0.23
2023-02-04T02:35:26.359Z,-0.32
2023-02-04T02:40:29.390Z,-0.51
2023-02-04T02:45:34.294Z,-0.63
2023-02-04T02:50:37.304Z,-0.76
2023-02-04T02:55:40.610Z,-0.41
2023-02-04T03:00:44.451Z,-0.47
2023-02-04T03:05:52.974Z,-0.37
2023-02-04T03:10:56.757Z,-0.59
2023-02-04T03:16:00.581Z,-0.64
2023-02-04T03:21:05.938Z,-0.68
2023-02-04T03:26:08.663Z,-1.11
2023-02-04T03:31:11.494Z,-0.69
2023-02-04T03:36:14.159Z,-0.42
2023-02-04T03:41:16.896Z,-0.31
2023-02-04T03:46:19.583Z,-0.20
2023-02-04T03:51:22.338Z,-0.18
2023-02-04T03:56:25.109Z,-0.38
2023-02-04T04:01:27.701Z,-0.29
2023-02-04T04:06:31.581Z,-0.19
2023-02-04T04:11:34.121Z,-0.05
2023-02-04T04:16:36.742Z,0.06
2023-02-04T04:21:39.346Z,0.14
2023-02-04T04:26:41.880Z,0.15
2023-02-04T04:31:45.163Z,0.01
2023-02-04T04:36:47.771Z,-0.20
2023-02-04T04:41:50.304Z,-0.02
2023-02-04T04:46:52.924Z,0.16
2023-02-04T04:51:55.645Z,-0.13
2023-02-04T04:56:58.196Z,-0.02
2023-02-04T05:02:00.756Z,-0.28
2023-02-04T05:07:03.430Z,-0.18
2023-02-04T05:12:06.352Z,-0.10
2023-02-04T05:17:08.936Z,-0.13
2023-02-04T05:22:11.611Z,0.01
2023-02-04T05:27:14.471Z,0.24
2023-02-04T05:32:17.003Z,0.25
2023-02-04T05:37:21.129Z,0.01
2023-02-04T05:42:23.770Z,-0.29
2023-02-04T05:47:26.324Z,-0.36
2023-02-04T05:52:28.970Z,-0.38
2023-02-04T05:57:31.625Z,-0.27
2023-02-04T06:02:34.218Z,-0.43
2023-02-04T06:07:36.864Z,-0.68
2023-02-04T06:12:39.499Z,-0.75
2023-02-04T06:17:42.102Z,-0.76
2023-02-04T06:22:44.702Z,-0.97
2023-02-04T06:27:47.449Z,-0.98
2023-02-04T06:32:50.035Z,-0.86
2023-02-04T06:37:52.559Z,-0.77
2023-02-04T06:42:55.142Z,-0.69
2023-02-04T06:47:57.700Z,-0.54
2023-02-04T06:53:00.368Z,-0.45
2023-02-04T06:58:03.015Z,-0.31
2023-02-04T07:03:07.522Z,-0.34
2023-02-04T07:08:10.097Z,-0.15
2023-02-04T07:13:12.730Z,-0.11
2023-02-04T07:18:15.458Z,-0.15
2023-02-04T07:23:18.018Z,-0.01
2023-02-04T07:28:20.592Z,0.16
2023-02-04T07:33:23.690Z,0.28
2023-02-04T07:38:26.232Z,0.46
2023-02-04T07:43:28.706Z,0.58
2023-02-04T07:48:31.298Z,0.67
2023-02-04T07:53:33.926Z,0.73
2023-02-04T07:58:36.716Z,0.98
2023-02-04T08:03:41.627Z,1.05
2023-02-04T08:08:44.484Z,1.05
2023-02-04T08:13:47.111Z,1.13
2023-02-04T08:18:49.668Z,1.17
2023-02-04T08:23:52.454Z,1.68
2023-02-04T08:28:55.067Z,1.52
2023-02-04T08:33:58.072Z,1.55
2023-02-04T08:39:00.817Z,1.45
2023-02-04T08:44:03.486Z,1.33
2023-02-04T08:49:06.111Z,1.22
2023-02-04T08:54:08.699Z,1.28
2023-02-04T08:59:12.120Z,1.32
2023-02-04T09:04:15.217Z,1.53
2023-02-04T09:09:18.867Z,1.61
2023-02-04T09:14:22.224Z,1.48
2023-02-04T09:19:26.167Z,1.58
2023-02-04T09:24:28.892Z,1.27
2023-02-04T09:29:31.548Z,1.39
2023-02-04T09:34:34.132Z,1.37
2023-02-04T09:39:36.705Z,1.37
2023-02-04T09:44:39.375Z,1.41
2023-02-04T09:49:47.012Z,1.50
2023-02-04T09:54:49.645Z,1.59
2023-02-04T09:59:56.694Z,1.51
2023-02-04T10:04:59.213Z,1.59
2023-02-04T10:10:01.862Z,1.45
2023-02-04T10:15:11.137Z,1.57
2023-02-04T10:20:22.380Z,1.77
2023-02-04T10:25:26.400Z,1.70
2023-02-04T10:30:35.985Z,1.69
2023-02-04T10:35:48.233Z,1.36
2023-02-04T10:41:05.917Z,0.98
2023-02-04T10:46:08.729Z,0.51
2023-02-04T10:51:13.437Z,0.91
2023-02-04T10:56:21.831Z,0.69
2023-02-04T11:01:28.897Z,0.40
2023-02-04T11:06:31.779Z,0.59
2023-02-04T11:11:34.771Z,0.99
2023-02-04T11:16:48.872Z,0.83
2023-02-04T11:21:51.661Z,1.09
2023-02-04T11:27:09.172Z,0.79
2023-02-04T11:32:38.100Z,0.69
2023-02-04T11:37:43.470Z,0.75
2023-02-04T11:42:46.356Z,0.78
2023-02-04T11:47:50.843Z,0.88
2023-02-04T11:52:55.062Z,0.84
2023-02-04T11:57:58.537Z,0.87
2023-02-04T12:03:06.792Z,0.96
2023-02-04T12:08:33.772Z,0.95
2023-02-04T12:13:50.050Z,0.78
2023-02-04T12:18:52.628Z,0.81
2023-02-04T12:23:55.562Z,0.68
2023-02-04T12:29:01.658Z,0.73
2023-02-04T12:34:04.400Z,0.68
2023-02-04T12:39:06.986Z,0.61
2023-02-04T12:44:10.986Z,0.49
2023-02-04T12:49:13.561Z,0.81
2023-02-04T12:54:16.453Z,0.64
2023-02-04T12:59:19.337Z,0.61
2023-02-04T13:04:24.649Z,0.61
2023-02-04T13:09:27.878Z,0.69
2023-02-04T13:14:30.659Z,1.02
2023-02-04T13:19:36.614Z,0.90
2023-02-04T13:24:42.086Z,0.64
2023-02-04T13:29:45.697Z,0.81
2023-02-04T13:34:48.601Z,0.76
2023-02-04T13:39:51.615Z,0.81
2023-02-04T13:44:55.564Z,1.01
2023-02-04T13:50:01.395Z,1.06
2023-02-04T13:55:06.401Z,1.03
2023-02-04T14:00:09.884Z,0.91
2023-02-04T14:05:16.137Z,0.88
2023-02-04T14:10:18.922Z,0.96
2023-02-04T14:15:21.663Z,0.97
2023-02-04T14:20:24.251Z,0.84
2023-02-04T14:25:26.901Z,0.93
2023-02-04T14:30:30.447Z,0.75
2023-02-04T14:35:33.157Z,0.87
2023-02-04T14:40:35.775Z,0.40
2023-02-04T14:45:40.184Z,0.26
2023-02-04T14:50:42.775Z,0.23
2023-02-04T14:55:45.978Z,0.25
2023-02-04T15:00:48.498Z,0.19
2023-02-04T15:05:51.231Z,0.47
2023-02-04T15:10:53.885Z,0.06
2023-02-04T15:15:56.842Z,0.14
2023-02-04T15:20:59.494Z,0.43
2023-02-04T15:26:02.327Z,0.49
2023-02-04T15:31:05.533Z,0.41
2023-02-04T15:36:08.465Z,0.20
2023-02-04T15:41:11.129Z,0.32
2023-02-04T15:46:13.753Z,0.33
2023-02-04T15:51:16.486Z,0.17
2023-02-04T15:56:21.322Z,0.26
2023-02-04T16:01:23.961Z,0.03
2023-02-04T16:06:26.760Z,-0.25
2023-02-04T16:11:29.388Z,-0.61
2023-02-04T16:16:34.403Z,-0.84
2023-02-04T16:21:36.967Z,-0.92
2023-02-04T16:26:39.532Z,-1.01
2023-02-04T16:31:42.233Z,-0.94
2023-02-04T16:36:44.799Z,-0.87
2023-02-04T16:41:47.362Z,-0.97
2023-02-04T16:46:50.879Z,-1.26
2023-02-04T16:51:53.710Z,-1.25
2023-02-04T16:56:57.007Z,-1.15
2023-02-04T17:02:00.817Z,-1.13
2023-02-04T17:07:04.324Z,-1.30
2023-02-04T17:12:07.356Z,-1.29
2023-02-04T17:17:15.519Z,-1.08
2023-02-04T17:22:18.748Z,-1.03
2023-02-04T17:27:23.952Z,-1.05
2023-02-04T17:32:28.107Z,-1.07
2023-02-04T17:37:33.421Z,-1.15
2023-02-04T17:42:36.976Z,-1.05
2023-02-04T17:47:40.228Z,-0.93
2023-02-04T17:52:42.963Z,-1.27
2023-02-04T17:57:45.670Z,-1.20
2023-02-04T18:02:50.124Z,-1.42
2023-02-04T18:08:11.544Z,-1.59
2023-02-04T18:13:25.638Z,-1.73
2023-02-04T18:18:39.959Z,-1.47
2023-02-04T18:23:44.358Z,-1.44
2023-02-04T18:28:50.946Z,-1.38
2023-02-04T18:33:57.834Z,-1.53
2023-02-04T18:39:03.817Z,-1.61
2023-02-04T18:44:46.646Z,-1.67
2023-02-04T18:49:49.334Z,-1.72
2023-02-04T18:54:56.479Z,-1.79
2023-02-04T19:00:14.650Z,-1.72
2023-02-04T19:05:34.501Z,-1.93
2023-02-04T19:10:39.619Z,-1.71
2023-02-04T19:15:42.454Z,-1.94
2023-02-04T19:20:50.223Z,-1.64
2023-02-04T19:25:53.179Z,-1.48
2023-02-04T19:31:10.568Z,-1.66
2023-02-04T19:36:23.666Z,-1.76
2023-02-04T19:41:38.592Z,-2.02
2023-02-04T19:46:42.507Z,-1.92
2023-02-04T19:51:48.733Z,-1.95
2023-02-04T19:56:52.429Z,-1.68
2023-02-04T20:02:07.420Z,-1.87
2023-02-04T20:07:22.031Z,-1.77
2023-02-04T20:12:25.410Z,-1.68
2023-02-04T20:17:38.980Z,-1.52
2023-02-04T20:22:50.167Z,-1.57
2023-02-04T20:27:57.227Z,-1.79
2023-02-04T20:33:30.843Z,-1.92
2023-02-04T20:38:33.447Z,-1.82
2023-02-04T20:43:35.999Z,-2.03
2023-02-04T20:48:38.741Z,-1.73
2023-02-04T20:53:57.883Z,-1.79
2023-02-04T20:59:12.592Z,-1.76
2023-02-04T21:04:36.829Z,-1.59
2023-02-04T21:09:40.235Z,-1.55
2023-02-04T21:14:43.039Z,-1.81
2023-02-04T21:19:45.705Z,-1.87
2023-02-04T21:24:48.908Z,-1.66
2023-02-04T21:29:53.882Z,-1.64
2023-02-04T21:34:56.503Z,-2.11
2023-02-04T21:39:59.078Z,-1.83
2023-02-04T21:45:01.624Z,-1.76
2023-02-04T21:50:04.628Z,-1.75
2023-02-04T21:55:08.270Z,-1.69
2023-02-04T22:00:11.553Z,-1.59
2023-02-04T22:05:14.209Z,-1.67
2023-02-04T22:10:23.899Z,-1.62
2023-02-04T22:15:28.182Z,-1.69
2023-02-04T22:20:31.141Z,-1.59
2023-02-04T22:25:33.962Z,-1.62
2023-02-04T22:30:37.922Z,-1.60
2023-02-04T22:35:40.711Z,-1.55
2023-02-04T22:40:43.423Z,-1.85
2023-02-04T22:45:46.028Z,-1.96
2023-02-04T22:50:48.708Z,-1.72
2023-02-04T22:55:51.268Z,-1.63
2023-02-04T23:00:54.077Z,-1.75
2023-02-04T23:05:56.740Z,-1.78
2023-02-04T23:10:59.519Z,-1.79
2023-02-04T23:16:02.475Z,-1.79
2023-02-04T23:21:05.513Z,-1.78
2023-02-04T23:26:08.401Z,-1.56
2023-02-04T23:31:11.353Z,-1.82
2023-02-04T23:36:14.114Z,-1.58
2023-02-04T23:41:17.219Z,-1.75
2023-02-04T23:46:19.926Z,-1.92
2023-02-04T23:51:22.477Z,-1.90
2023-02-04T23:56:25.092Z,-1.95
